Time;durP1;ratioP1;P1;durP2;ratioP2;P2;SDS_P1;SDS_P2;PMS_P1;PMS_P2;Temp;Humidity;BMP_temperature;BMP_pressure;BME280_temperature;BME280_humidity;BME280_pressure;Samples;Min_cycle;Max_cycle;Signal;HPM_P1;HPM_P2
2022/07/16 00:02:31;;;;;;;12.07;10.50;;;;;;;19.85;100.00;100694.47;1737236;82;21567;-90
2022/07/16 00:04:59;;;;;;;13.98;10.23;;;;;;;19.91;100.00;100689.50;1707799;84;21074;-89
2022/07/16 00:07:26;;;;;;;11.68;10.20;;;;;;;19.97;100.00;100689.61;1707613;84;21583;-90
2022/07/16 00:09:53;;;;;;;12.07;10.32;;;;;;;20.04;100.00;100691.55;1737122;82;21026;-90
2022/07/16 00:12:20;;;;;;;14.87;10.05;;;;;;;20.08;100.00;100691.53;1707517;84;21172;-89
2022/07/16 00:14:47;;;;;;;12.20;9.93;;;;;;;20.12;100.00;100688.84;1707829;83;21039;-90
2022/07/16 00:17:15;;;;;;;11.50;10.10;;;;;;;20.17;100.00;100686.52;1737197;82;21046;-89
2022/07/16 00:19:43;;;;;;;11.50;10.30;;;;;;;20.18;100.00;100692.94;1707406;83;21096;-91
2022/07/16 00:22:10;;;;;;;12.37;10.30;;;;;;;20.18;100.00;100680.23;1700888;83;21050;-89
2022/07/16 00:24:38;;;;;;;11.40;10.25;;;;;;;20.18;100.00;100682.36;1712385;83;21131;-89
2022/07/16 00:27:06;;;;;;;11.12;9.78;;;;;;;20.20;100.00;100684.81;1712342;83;21050;-89
2022/07/16 00:29:33;;;;;;;12.25;10.95;;;;;;;20.21;100.00;100683.81;1694022;83;21118;-91
2022/07/16 00:32:00;;;;;;;12.23;11.03;;;;;;;20.22;100.00;100687.30;1691855;84;21528;-90
2022/07/16 00:34:28;;;;;;;11.93;9.98;;;;;;;20.17;100.00;100680.70;1712270;83;21030;-91
2022/07/16 00:36:55;;;;;;;10.90;9.90;;;;;;;20.12;100.00;100687.52;1693295;84;21151;-91
2022/07/16 00:39:22;;;;;;;13.22;10.68;;;;;;;20.08;100.00;100679.63;1692264;84;21047;-92
2022/07/16 00:41:49;;;;;;;11.18;10.08;;;;;;;20.04;100.00;100688.90;1712624;83;21054;-92
2022/07/16 00:44:20;;;;;;;11.63;10.43;;;;;;;19.92;100.00;100688.48;1712127;83;21089;-89
2022/07/16 00:46:49;;;;;;;10.93;9.83;;;;;;;19.82;100.00;100686.88;1712344;83;21065;-90
2022/07/16 00:49:19;;;;;;;12.43;10.80;;;;;;;19.76;100.00;100686.75;1743018;81;21050;-90
2022/07/16 00:51:50;;;;;;;15.20;10.38;;;;;;;19.70;100.00;100693.06;1740822;82;21070;-90
2022/07/16 00:54:19;;;;;;;12.55;10.25;;;;;;;19.69;100.00;100687.93;1741473;82;21110;-90
2022/07/16 00:56:48;;;;;;;11.60;10.18;;;;;;;19.70;100.00;100691.73;1740759;82;21096;-90
2022/07/16 00:59:15;;;;;;;13.38;10.35;;;;;;;19.70;100.00;100695.70;1741522;81;21030;-90
2022/07/16 01:01:42;;;;;;;11.55;9.48;;;;;;;19.70;100.00;100692.22;1741067;82;21793;-91
2022/07/16 01:04:10;;;;;;;12.50;9.55;;;;;;;19.70;100.00;100694.38;1741346;81;21058;-91
2022/07/16 01:06:37;;;;;;;10.05;9.05;;;;;;;19.75;100.00;100691.19;1741148;81;21022;-91
2022/07/16 01:09:06;;;;;;;12.50;9.20;;;;;;;19.82;100.00;100686.05;1741019;81;21089;-91
2022/07/16 01:11:34;;;;;;;14.70;9.78;;;;;;;19.90;100.00;100687.34;1741145;82;21065;-92
2022/07/16 01:14:03;;;;;;;17.42;10.75;;;;;;;19.99;100.00;100681.52;1740833;82;21205;-92
2022/07/16 01:16:32;;;;;;;20.60;11.78;;;;;;;20.07;100.00;100685.41;1741027;82;21010;-91
2022/07/16 01:18:59;;;;;;;20.72;12.73;;;;;;;20.13;100.00;100684.72;1741367;82;21022;-91
2022/07/16 01:21:27;;;;;;;25.95;15.00;;;;;;;20.14;100.00;100686.84;1740704;82;21596;-91
2022/07/16 01:23:54;;;;;;;24.85;14.98;;;;;;;20.11;100.00;100683.26;1741025;81;21081;-90
2022/07/16 01:26:22;;;;;;;23.55;14.90;;;;;;;20.08;100.00;100678.31;1740830;81;21119;-91
2022/07/16 01:28:49;;;;;;;21.00;14.07;;;;;;;20.06;100.00;100675.86;1741202;81;21094;-90
2022/07/16 01:31:17;;;;;;;23.10;14.38;;;;;;;20.04;100.00;100674.36;1740921;82;21100;-90
2022/07/16 01:33:44;;;;;;;17.50;12.65;;;;;;;20.01;100.00;100678.19;1741223;81;21293;-90
2022/07/16 01:36:15;;;;;;;25.17;14.78;;;;;;;19.96;100.00;100672.61;1741097;82;21034;-91
2022/07/16 01:38:45;;;;;;;22.15;13.83;;;;;;;19.90;100.00;100674.64;1741468;81;21124;-90
2022/07/16 01:41:13;;;;;;;17.45;11.93;;;;;;;19.86;100.00;100669.70;1740824;81;21034;-90
2022/07/16 01:43:41;;;;;;;16.40;11.12;;;;;;;19.84;100.00;100666.88;1741178;81;21042;-90
2022/07/16 01:46:08;;;;;;;16.40;11.43;;;;;;;19.79;100.00;100659.48;1740832;82;21023;-90
2022/07/16 01:48:36;;;;;;;13.22;10.65;;;;;;;19.80;100.00;100658.48;1741468;81;21010;-90
2022/07/16 01:51:03;;;;;;;12.60;10.10;;;;;;;19.83;100.00;100659.44;1741033;81;21175;-90
2022/07/16 01:53:30;;;;;;;12.75;9.88;;;;;;;19.82;100.00;100652.53;1741215;82;21046;-90
2022/07/16 01:55:59;;;;;;;10.28;9.28;;;;;;;19.83;100.00;100657.31;1741393;81;21086;-90
2022/07/16 01:58:27;;;;;;;12.23;9.83;;;;;;;19.81;100.00;100657.50;1741483;82;21065;-90
2022/07/16 02:00:55;;;;;;;10.60;9.50;;;;;;;19.78;100.00;100657.83;1741211;81;21224;-92
2022/07/16 02:03:22;;;;;;;10.23;9.30;;;;;;;19.76;100.00;100659.02;1741350;82;21162;-92
2022/07/16 02:05:49;;;;;;;9.43;8.63;;;;;;;19.70;100.00;100663.16;1740957;82;21019;-92
2022/07/16 02:08:17;;;;;;;11.03;9.05;;;;;;;19.65;100.00;100673.44;1741494;82;21042;-92
2022/07/16 02:10:44;;;;;;;10.90;8.83;;;;;;;19.59;100.00;100677.59;1741023;82;21571;-90
2022/07/16 02:13:12;;;;;;;9.18;8.25;;;;;;;19.55;100.00;100677.12;1741000;82;21061;-90
2022/07/16 02:15:40;;;;;;;9.60;8.58;;;;;;;19.61;100.00;100690.61;1741275;81;21168;-90
2022/07/16 02:18:07;;;;;;;10.53;8.10;;;;;;;19.68;100.00;100702.13;1741459;82;21109;-90
2022/07/16 02:20:34;;;;;;;10.08;8.98;;;;;;;19.75;100.00;100712.33;1741359;81;21022;-90
2022/07/16 02:23:01;;;;;;;9.85;8.40;;;;;;;19.81;100.00;100717.42;1741185;82;21035;-90
2022/07/16 02:25:28;;;;;;;9.18;8.15;;;;;;;19.84;100.00;100722.37;1741230;81;21074;-90
2022/07/16 02:28:08;;;;;;;8.63;7.90;;;;;;;19.88;100.00;100716.27;1741059;81;21142;-90
2022/07/16 02:30:42;;;;;;;9.50;8.10;;;;;;;19.91;100.00;100719.38;1741140;82;21136;-90
2022/07/16 02:33:12;;;;;;;7.75;7.05;;;;;;;19.93;100.00;100727.97;1741073;82;21065;-91
2022/07/16 02:35:39;;;;;;;7.90;7.30;;;;;;;19.91;100.00;100723.86;1741245;82;21025;-90
2022/07/16 02:38:08;;;;;;;8.30;7.55;;;;;;;19.90;100.00;100728.81;1741200;82;21535;-91
2022/07/16 02:40:39;;;;;;;9.08;8.28;;;;;;;19.86;100.00;100731.80;1741080;82;21195;-90
2022/07/16 02:43:07;;;;;;;9.65;8.08;;;;;;;19.81;100.00;100730.15;1741159;82;21544;-90
2022/07/16 02:45:37;;;;;;;9.23;7.67;;;;;;;19.78;100.00;100733.13;1741059;82;21702;-91
2022/07/16 02:48:05;;;;;;;9.73;7.80;;;;;;;19.75;100.00;100734.78;1741261;82;21033;-91
2022/07/16 02:50:32;;;;;;;8.48;7.67;;;;;;;19.74;100.00;100731.00;1718452;82;21046;-90
2022/07/16 02:52:59;;;;;;;8.43;7.58;;;;;;;19.71;100.00;100734.81;1741211;82;21532;-90
2022/07/16 02:55:26;;;;;;;8.60;7.72;;;;;;;19.71;100.00;100747.52;1741384;82;21101;-90
2022/07/16 02:57:54;;;;;;;8.33;7.60;;;;;;;19.74;100.00;100744.20;1740816;82;21029;-90
2022/07/16 03:00:23;;;;;;;7.80;7.10;;;;;;;19.77;100.00;100749.97;1741060;82;21061;-89
2022/07/16 03:02:50;;;;;;;8.35;7.65;;;;;;;19.79;100.00;100747.98;1740924;82;21042;-90
2022/07/16 03:05:17;;;;;;;9.70;8.90;;;;;;;19.81;100.00;100746.48;1741276;82;21125;-91
2022/07/16 03:07:44;;;;;;;11.68;8.80;;;;;;;19.83;100.00;100743.98;1741382;82;21014;-90
2022/07/16 03:10:12;;;;;;;8.95;8.03;;;;;;;19.84;100.00;100750.95;1741349;82;21475;-91
2022/07/16 03:12:40;;;;;;;10.03;8.48;;;;;;;19.88;100.00;100746.66;1741147;82;21082;-90
2022/07/16 03:15:11;;;;;;;9.20;8.25;;;;;;;19.85;100.00;100749.15;1741322;82;21543;-91
2022/07/16 03:17:40;;;;;;;9.03;8.35;;;;;;;19.84;100.00;100752.27;1740844;82;21757;-91
2022/07/16 03:20:11;;;;;;;9.70;8.80;;;;;;;19.82;100.00;100750.77;1740765;81;21038;-90
2022/07/16 03:22:44;;;;;;;9.18;8.43;;;;;;;19.82;100.00;100750.77;1741089;82;21059;-89
2022/07/16 03:25:14;;;;;;;8.63;7.92;;;;;;;19.80;100.00;100754.92;1738838;82;21033;-90
2022/07/16 03:27:41;;;;;;;9.25;8.45;;;;;;;19.80;100.00;100764.16;1740962;82;21073;-90
2022/07/16 03:30:09;;;;;;;9.25;8.50;;;;;;;19.79;100.00;100769.13;1741661;82;21173;-90
2022/07/16 03:32:36;;;;;;;10.03;9.03;;;;;;;19.79;100.00;100773.08;1741351;82;21432;-91
2022/07/16 03:40:35;;;;;;;9.90;8.95;;;;;;;19.77;100.00;100781.67;1760031;80;20998;-91
2022/07/16 03:43:02;;;;;;;9.93;9.03;;;;;;;19.76;100.00;100781.34;1759712;81;21088;-91
2022/07/16 03:45:30;;;;;;;8.88;8.13;;;;;;;19.75;100.00;100782.33;1759913;80;21006;-90
2022/07/16 03:47:57;;;;;;;9.68;8.88;;;;;;;19.76;100.00;100781.85;1759694;81;21232;-90
2022/07/16 03:50:24;;;;;;;9.78;8.83;;;;;;;19.76;100.00;100781.34;1760121;81;21009;-91
2022/07/16 03:52:51;;;;;;;10.53;9.55;;;;;;;19.77;100.00;100788.27;1759521;81;20989;-92
2022/07/16 03:55:20;;;;;;;10.40;9.50;;;;;;;19.76;100.00;100795.88;1759891;80;20966;-90
2022/07/16 03:57:47;;;;;;;10.58;9.68;;;;;;;19.75;100.00;100796.05;1760190;80;21041;-91
2022/07/16 04:00:15;;;;;;;10.58;9.65;;;;;;;19.74;100.00;100783.35;1759994;81;21045;-91
2022/07/16 04:02:42;;;;;;;10.85;9.85;;;;;;;19.75;100.00;100785.48;1759650;80;21095;-91
2022/07/16 04:05:09;;;;;;;10.60;9.65;;;;;;;19.76;100.00;100787.95;1759937;80;21128;-91
2022/07/16 04:07:36;;;;;;;9.90;9.10;;;;;;;19.75;100.00;100794.73;1760081;81;21864;-90
2022/07/16 04:10:05;;;;;;;10.35;9.45;;;;;;;19.74;100.00;100795.72;1759753;81;21077;-93
2022/07/16 04:12:34;;;;;;;10.90;9.93;;;;;;;19.72;100.00;100793.26;1759670;80;21019;-92
2022/07/16 04:15:01;;;;;;;10.98;9.73;;;;;;;19.71;100.00;100790.28;1759776;81;21089;-91
2022/07/16 04:17:29;;;;;;;9.90;9.13;;;;;;;19.70;100.00;100788.64;1759927;81;21519;-91
2022/07/16 04:19:56;;;;;;;10.53;9.63;;;;;;;19.70;100.00;100788.64;1759761;80;21107;-91
2022/07/16 04:22:24;;;;;;;10.85;9.95;;;;;;;19.71;100.00;100792.93;1759387;80;21803;-93
2022/07/16 04:24:51;;;;;;;10.68;9.78;;;;;;;19.74;100.00;100794.40;1759959;80;21128;-92
2022/07/16 04:27:20;;;;;;;11.33;10.32;;;;;;;19.76;100.00;100794.55;1759740;81;21019;-92
2022/07/16 04:29:47;;;;;;;11.10;10.08;;;;;;;19.78;100.00;100799.69;1760026;80;21144;-92
2022/07/16 04:32:15;;;;;;;11.05;10.15;;;;;;;19.77;100.00;100813.37;1759888;81;21866;-92
2022/07/16 04:34:42;;;;;;;12.47;11.38;;;;;;;19.76;100.00;100819.64;1759583;80;21018;-93
2022/07/16 04:37:09;;;;;;;11.22;10.13;;;;;;;19.74;100.00;100824.78;1755587;80;21520;-91
2022/07/16 04:39:37;;;;;;;12.53;11.22;;;;;;;19.75;100.00;100823.28;1762886;80;21077;-91
2022/07/16 04:42:04;;;;;;;18.17;10.82;;;;;;;19.76;100.00;100823.61;1770928;81;21536;-91
2022/07/16 04:44:31;;;;;;;12.10;11.10;;;;;;;19.79;100.00;100827.75;1770282;80;21139;-92
2022/07/16 04:46:59;;;;;;;11.45;10.45;;;;;;;19.82;100.00;100827.39;1770126;79;21034;-92
2022/07/16 04:49:26;;;;;;;11.83;10.82;;;;;;;19.83;100.00;100829.04;1755441;80;21110;-92
2022/07/16 04:51:53;;;;;;;12.45;11.35;;;;;;;19.84;100.00;100827.58;1757948;80;21062;-91
2022/07/16 04:54:20;;;;;;;12.35;11.33;;;;;;;19.84;100.00;100826.25;1760168;79;21540;-91
2022/07/16 04:56:47;;;;;;;12.50;11.50;;;;;;;19.83;100.00;100829.85;1758324;80;21164;-92
2022/07/16 04:59:14;;;;;;;13.13;11.97;;;;;;;19.83;100.00;100833.00;1745980;80;21081;-92
2022/07/16 05:01:41;;;;;;;12.95;11.80;;;;;;;19.80;100.00;100828.89;1745919;80;21099;-90
2022/07/16 05:04:09;;;;;;;13.28;12.18;;;;;;;19.78;100.00;100825.59;1745741;80;21047;-94
2022/07/16 05:06:36;;;;;;;14.35;13.03;;;;;;;19.79;100.00;100839.64;1747491;80;21114;-89
2022/07/16 05:09:03;;;;;;;13.58;12.43;;;;;;;19.78;100.00;100840.63;1745544;82;21645;-88
2022/07/16 05:11:31;;;;;;;15.53;14.07;;;;;;;19.78;100.00;100841.44;1745798;82;21020;-89
2022/07/16 05:14:00;;;;;;;14.43;13.22;;;;;;;19.78;100.00;100849.37;1744879;80;21558;-88
2022/07/16 05:16:28;;;;;;;16.07;14.78;;;;;;;19.80;100.00;100843.91;1753928;81;21073;-89
2022/07/16 05:18:55;;;;;;;15.60;14.40;;;;;;;19.81;100.00;100841.11;1745702;82;21070;-90
2022/07/16 05:21:22;;;;;;;16.10;14.75;;;;;;;19.82;100.00;100844.09;1752232;80;21844;-88
2022/07/16 05:23:49;;;;;;;16.25;14.90;;;;;;;19.84;100.00;100848.71;1751167;80;21022;-88
2022/07/16 05:26:17;;;;;;;16.02;14.73;;;;;;;19.85;100.00;100850.36;1758503;80;21059;-89
2022/07/16 05:28:44;;;;;;;16.12;14.73;;;;;;;19.86;100.00;100859.12;1759763;81;21042;-89
2022/07/16 05:31:11;;;;;;;16.73;15.23;;;;;;;19.89;100.00;100861.92;1756878;80;21026;-88
2022/07/16 05:33:39;;;;;;;15.93;14.63;;;;;;;19.91;100.00;100865.22;1764623;80;21095;-87
2022/07/16 05:36:07;;;;;;;15.48;14.13;;;;;;;19.95;100.00;100873.94;1772207;79;20979;-88
2022/07/16 05:38:34;;;;;;;15.85;14.53;;;;;;;20.04;100.00;100876.55;1783304;80;21112;-87
2022/07/16 05:41:01;;;;;;;16.50;14.98;;;;;;;20.08;100.00;100878.67;1783206;79;21037;-86
2022/07/16 05:43:29;;;;;;;16.82;15.20;;;;;;;20.10;100.00;100869.28;1782662;80;21052;-86
2022/07/16 05:45:57;;;;;;;15.93;14.55;;;;;;;20.13;100.00;100861.83;1776350;79;21999;-87
2022/07/16 05:48:24;;;;;;;15.43;14.23;;;;;;;20.16;100.00;100854.85;1765255;80;21057;-86
2022/07/16 05:50:52;;;;;;;16.25;14.85;;;;;;;20.17;100.00;100861.79;1776029;80;22385;-87
2022/07/16 05:53:19;;;;;;;15.40;14.15;;;;;;;20.22;100.00;100867.07;1779893;80;21054;-87
2022/07/16 05:55:47;;;;;;;14.90;13.65;;;;;;;20.24;100.00;100877.80;1767202;80;21037;-87
2022/07/16 05:58:14;;;;;;;15.78;14.35;;;;;;;20.26;100.00;100878.45;1781559;80;21129;-88
2022/07/16 06:00:41;;;;;;;16.62;15.13;;;;;;;20.28;100.00;100880.41;1779514;80;21082;-87
2022/07/16 06:03:10;;;;;;;15.63;14.35;;;;;;;20.29;100.00;100878.60;1781384;80;21022;-87
2022/07/16 06:05:38;;;;;;;17.80;16.12;;;;;;;20.29;100.00;100878.60;1781140;80;21043;-87
2022/07/16 06:08:05;;;;;;;17.62;16.00;;;;;;;20.30;100.00;100883.70;1781261;80;21075;-87
2022/07/16 06:10:32;;;;;;;17.40;15.93;;;;;;;20.28;100.00;100876.44;1781402;80;21506;-87
2022/07/16 06:13:00;;;;;;;16.57;15.20;;;;;;;20.27;100.00;100868.69;1779340;80;21591;-87
2022/07/16 06:15:27;;;;;;;17.48;15.98;;;;;;;20.26;100.00;100867.87;1778329;80;21068;-87
2022/07/16 06:17:54;;;;;;;17.48;15.90;;;;;;;20.27;100.00;100864.21;1768781;79;21016;-87
2022/07/16 06:20:22;;;;;;;16.23;14.93;;;;;;;20.30;100.00;100866.52;1781462;80;21099;-87
2022/07/16 06:22:49;;;;;;;16.97;15.45;;;;;;;20.34;100.00;100872.28;1769750;79;21908;-85
2022/07/16 06:25:16;;;;;;;17.27;15.88;;;;;;;20.36;100.00;100875.59;1775065;80;21037;-85
2022/07/16 06:27:44;;;;;;;18.12;16.32;;;;;;;20.40;100.00;100880.03;1764975;80;21484;-85
2022/07/16 06:30:13;;;;;;;17.30;15.72;;;;;;;20.43;100.00;100875.21;1753428;80;21366;-86
2022/07/16 06:32:41;;;;;;;18.52;16.93;;;;;;;20.48;100.00;100886.08;1750449;82;21085;-84
2022/07/16 06:35:09;;;;;;;18.75;17.02;;;;;;;20.52;100.00;100891.84;1750285;82;21117;-84
2022/07/16 06:37:36;;;;;;;18.35;16.75;;;;;;;20.56;100.00;100884.38;1749762;81;21551;-85
2022/07/16 06:40:06;;;;;;;16.95;15.45;;;;;;;20.59;100.00;100889.34;1750078;82;21140;-85
2022/07/16 06:42:34;;;;;;;18.70;17.20;;;;;;;20.60;100.00;100887.02;1750359;82;21042;-85
2022/07/16 06:45:01;;;;;;;17.20;15.90;;;;;;;20.60;100.00;100884.37;1750755;82;21038;-85
2022/07/16 06:47:29;;;;;;;18.45;16.85;;;;;;;20.58;100.00;100878.42;1750652;82;22269;-85
2022/07/16 06:49:56;;;;;;;18.12;16.57;;;;;;;20.57;100.00;100872.81;1750412;82;21030;-86
2022/07/16 06:52:24;;;;;;;17.32;15.75;;;;;;;20.57;100.00;100869.68;1750292;82;21037;-84
2022/07/16 06:54:51;;;;;;;17.95;16.25;;;;;;;20.56;100.00;100860.58;1750820;81;21073;-85
2022/07/16 06:57:19;;;;;;;17.45;15.95;;;;;;;20.55;100.00;100866.38;1750221;82;21104;-85
2022/07/16 06:59:46;;;;;;;17.25;15.85;;;;;;;20.55;100.00;100870.86;1750507;82;21086;-85
2022/07/16 07:02:14;;;;;;;16.37;15.08;;;;;;;20.55;100.00;100868.22;1750156;82;21021;-85
2022/07/16 07:04:41;;;;;;;16.80;15.40;;;;;;;20.55;100.00;100867.70;1750465;82;21025;-86
2022/07/16 07:07:08;;;;;;;16.73;15.23;;;;;;;20.56;100.00;100869.35;1750524;82;21476;-85
2022/07/16 07:09:36;;;;;;;16.65;15.23;;;;;;;20.56;100.00;100865.87;1750345;82;21053;-84
2022/07/16 07:12:05;;;;;;;16.93;15.43;;;;;;;20.57;100.00;100868.84;1750492;81;21109;-85
2022/07/16 07:14:33;;;;;;;17.02;15.20;;;;;;;20.57;100.00;100871.48;1750582;82;21017;-85
2022/07/16 07:17:00;;;;;;;15.80;14.40;;;;;;;20.58;100.00;100862.55;1750358;81;21537;-84
2022/07/16 07:19:27;;;;;;;15.98;14.58;;;;;;;20.58;100.00;100867.84;1750406;82;21037;-85
2022/07/16 07:21:55;;;;;;;16.45;14.95;;;;;;;20.57;100.00;100869.68;1750392;82;20987;-84
2022/07/16 07:24:23;;;;;;;16.73;15.23;;;;;;;20.56;100.00;100861.42;1750273;82;21825;-87
2022/07/16 07:26:51;;;;;;;16.42;14.93;;;;;;;20.56;100.00;100863.22;1750339;82;21030;-84
2022/07/16 07:29:18;;;;;;;15.88;14.58;;;;;;;20.57;100.00;100874.13;1750034;82;21576;-85
2022/07/16 07:31:45;;;;;;;16.67;15.28;;;;;;;20.61;100.00;100872.80;1750420;82;21037;-85
2022/07/16 07:34:13;;;;;;;16.40;14.80;;;;;;;20.65;100.00;100872.75;1750420;81;21575;-84
2022/07/16 07:36:40;;;;;;;15.70;14.07;;;;;;;20.69;100.00;100872.74;1750154;82;21229;-84
2022/07/16 07:39:07;;;;;;;15.55;14.13;;;;;;;20.72;100.00;100875.53;1735200;82;21954;-84
2022/07/16 07:41:34;;;;;;;16.30;14.90;;;;;;;20.72;100.00;100881.63;1734573;82;21038;-85
2022/07/16 07:44:01;;;;;;;15.38;14.00;;;;;;;20.73;100.00;100883.31;1734213;82;21010;-84
2022/07/16 07:46:28;;;;;;;15.40;14.05;;;;;;;20.73;100.00;100880.67;1735111;82;21113;-84
2022/07/16 07:48:55;;;;;;;15.75;14.35;;;;;;;20.75;100.00;100883.16;1734330;81;21275;-83
2022/07/16 07:51:23;;;;;;;15.63;14.38;;;;;;;20.77;100.00;100881.98;1734277;82;21046;-83
2022/07/16 07:53:51;;;;;;;18.15;16.37;;;;;;;20.79;100.00;100886.58;1734351;82;21076;-84
2022/07/16 07:56:20;;;;;;;15.93;14.50;;;;;;;20.83;100.00;100894.98;1734382;82;21089;-84
2022/07/16 07:58:47;;;;;;;16.95;15.55;;;;;;;20.83;100.00;100898.95;1734558;82;21575;-84
2022/07/16 08:01:14;;;;;;;16.40;14.95;;;;;;;20.85;100.00;100905.41;1734643;82;21132;-84
2022/07/16 08:03:42;;;;;;;17.27;15.85;;;;;;;20.85;100.00;100901.44;1734332;82;21021;-84
2022/07/16 08:06:10;;;;;;;18.10;16.50;;;;;;;20.87;100.00;100902.09;1734776;82;21053;-84
2022/07/16 08:08:37;;;;;;;18.40;16.80;;;;;;;20.88;100.00;100901.91;1734175;82;21098;-85
2022/07/16 08:11:05;;;;;;;26.30;23.70;;;;;;;20.88;100.00;100906.36;1734660;82;21539;-84
2022/07/16 08:13:33;;;;;;;19.60;17.98;;;;;;;20.86;100.00;100908.39;1734027;81;21906;-85
2022/07/16 08:16:00;;;;;;;17.15;15.65;;;;;;;20.83;100.00;100910.86;1734697;82;20990;-84
2022/07/16 08:18:27;;;;;;;16.90;15.40;;;;;;;20.79;100.00;100909.06;1734351;82;21586;-85
2022/07/16 08:20:54;;;;;;;17.42;15.75;;;;;;;20.74;100.00;100915.91;1734449;82;21049;-86
2022/07/16 08:26:08;;;;;;;16.55;15.25;;;;;;;20.61;100.00;100909.32;1734733;82;21986;-85
2022/07/16 08:28:40;;;;;;;18.40;16.60;;;;;;;20.59;100.00;100916.59;1734685;82;21044;-86
2022/07/16 08:31:04;;;;;;;18.05;16.62;;;;;;;20.57;100.00;100910.69;1731365;82;20990;-85
2022/07/16 08:33:32;;;;;;;18.52;16.95;;;;;;;20.54;100.00;100907.05;1734296;82;21009;-85
2022/07/16 08:36:01;;;;;;;17.90;16.45;;;;;;;20.51;100.00;100903.93;1734991;82;21582;-85
2022/07/16 08:38:28;;;;;;;18.42;16.73;;;;;;;20.45;100.00;100908.93;1742486;81;21127;-85
2022/07/16 08:40:56;;;;;;;18.20;16.70;;;;;;;20.41;100.00;100910.26;1750758;82;22592;-85
2022/07/16 08:43:23;;;;;;;18.77;17.27;;;;;;;20.38;100.00;100916.39;1750444;82;21065;-85
2022/07/16 08:45:51;;;;;;;19.35;17.70;;;;;;;20.31;100.00;100912.31;1750590;82;21481;-85
2022/07/16 08:48:20;;;;;;;16.57;15.28;;;;;;;20.23;100.00;100901.77;1750537;82;21464;-85
2022/07/16 08:50:49;;;;;;;20.68;18.92;;;;;;;20.16;100.00;100897.14;1750299;82;21166;-84
2022/07/16 08:53:22;;;;;;;20.30;18.50;;;;;;;20.14;100.00;100897.84;1750632;81;21756;-85
2022/07/16 08:55:52;;;;;;;20.68;18.77;;;;;;;20.13;100.00;100906.77;1743344;82;21077;-85
2022/07/16 08:58:20;;;;;;;22.87;20.88;;;;;;;20.13;100.00;100910.73;1750429;82;21053;-84
2022/07/16 09:00:47;;;;;;;23.98;21.97;;;;;;;20.15;100.00;100904.75;1750464;82;21010;-85
2022/07/16 09:03:16;;;;;;;24.25;22.07;;;;;;;20.20;100.00;100910.03;1750267;82;21159;-85
2022/07/16 09:05:43;;;;;;;23.85;21.65;;;;;;;20.20;100.00;100904.75;1749932;82;21031;-84
2022/07/16 09:08:10;;;;;;;25.35;23.12;;;;;;;20.21;100.00;100907.72;1750202;81;21080;-85
2022/07/16 09:10:39;;;;;;;24.55;22.55;;;;;;;20.23;100.00;100904.41;1750140;82;21254;-84
2022/07/16 09:13:12;;;;;;;22.40;20.48;;;;;;;20.27;100.00;100903.88;1750570;82;21531;-84
2022/07/16 09:15:41;;;;;;;25.57;23.27;;;;;;;20.37;100.00;100906.80;1747135;82;21211;-84
2022/07/16 09:18:22;;;;;;;24.05;21.95;;;;;;;20.48;100.00;100902.47;1750240;82;20990;-84
2022/07/16 09:20:57;;;;;;;24.60;22.27;;;;;;;20.60;100.00;100901.56;1750548;82;21025;-84
2022/07/16 09:23:31;;;;;;;21.70;19.67;;;;;;;20.73;100.00;100893.09;1750051;82;20982;-84
2022/07/16 09:26:07;;;;;;;22.52;20.52;;;;;;;20.81;100.00;100889.06;1750176;82;21078;-84
2022/07/16 09:28:48;;;;;;;23.10;20.88;;;;;;;20.87;100.00;100891.00;1750758;81;21231;-85
2022/07/16 09:31:42;;;;;;;24.97;22.30;;;;;;;20.95;100.00;100888.30;1750546;82;21050;-85
2022/07/16 09:34:15;;;;;;;23.57;21.25;;;;;;;21.00;100.00;100892.22;1750193;82;21686;-86
2022/07/16 09:37:01;;;;;;;22.48;20.37;;;;;;;20.99;100.00;100888.77;1750422;82;21037;-85
2022/07/16 09:39:31;;;;;;;24.80;22.52;;;;;;;20.96;100.00;100890.42;1736719;81;21076;-85
2022/07/16 09:42:00;;;;;;;26.77;23.92;;;;;;;20.93;100.00;100892.94;1734592;82;21098;-85
2022/07/16 09:44:31;;;;;;;24.12;21.85;;;;;;;20.93;100.00;100886.83;1734764;82;21591;-85
2022/07/16 09:47:08;;;;;;;23.50;21.35;;;;;;;20.98;100.00;100881.81;1734653;82;21578;-86
2022/07/16 09:49:39;;;;;;;25.00;22.73;;;;;;;21.06;100.00;100883.59;1734950;82;21053;-84
2022/07/16 09:52:10;;;;;;;43.63;33.80;;;;;;;21.19;100.00;100880.34;1731464;82;21092;-84
2022/07/16 09:54:38;;;;;;;25.75;23.25;;;;;;;21.33;100.00;100879.54;1731124;82;21269;-83
2022/07/16 09:57:15;;;;;;;24.05;21.73;;;;;;;21.46;100.00;100878.92;1734702;82;20986;-85
2022/07/16 09:59:43;;;;;;;23.10;20.97;;;;;;;21.58;100.00;100880.66;1731114;82;21072;-85
2022/07/16 10:02:12;;;;;;;21.05;19.20;;;;;;;21.66;100.00;100876.59;1734586;82;21112;-86
2022/07/16 10:04:40;;;;;;;23.92;21.45;;;;;;;21.69;100.00;100872.75;1734693;81;21112;-85
2022/07/16 10:07:07;;;;;;;24.90;22.70;;;;;;;21.70;100.00;100873.08;1734772;82;21150;-85
2022/07/16 10:09:36;;;;;;;23.80;21.55;;;;;;;21.70;100.00;100869.91;1734410;82;21065;-83
2022/07/16 10:12:10;;;;;;;23.52;21.15;;;;;;;21.72;100.00;100870.56;1734749;82;21077;-84
2022/07/16 10:14:43;;;;;;;23.10;20.90;;;;;;;21.74;100.00;100865.06;1733850;82;21086;-86
2022/07/16 10:17:15;;;;;;;23.83;21.37;;;;;;;21.79;100.00;100864.52;1733982;82;21547;-84
2022/07/16 10:19:44;;;;;;;26.02;23.65;;;;;;;21.84;100.00;100858.16;1734249;82;21272;-85
2022/07/16 10:22:19;;;;;;;24.63;22.40;;;;;;;21.88;100.00;100854.95;1734531;82;21060;-85
2022/07/16 10:24:52;;;;;;;25.12;22.73;;;;;;;21.91;100.00;100844.52;1731657;82;21065;-84
2022/07/16 10:27:35;;;;;;;24.47;22.17;;;;;;;21.94;100.00;100853.91;1734347;81;21563;-85
2022/07/16 10:30:29;;;;;;;25.32;22.93;;;;;;;21.96;100.00;100855.37;1734372;82;21061;-85
2022/07/16 10:33:06;;;;;;;25.25;22.82;;;;;;;21.99;100.00;100852.33;1733280;82;22055;-85
2022/07/16 10:35:38;;;;;;;25.97;23.55;;;;;;;21.94;100.00;100855.24;1734306;82;21001;-84
2022/07/16 10:38:09;;;;;;;24.72;22.45;;;;;;;21.89;100.00;100859.77;1732754;81;21128;-85
2022/07/16 10:40:39;;;;;;;25.95;23.47;;;;;;;21.88;100.00;100854.95;1715725;83;21571;-84
2022/07/16 10:43:21;;;;;;;26.73;24.23;;;;;;;21.93;100.00;100858.38;1715838;83;21133;-83
2022/07/16 10:46:01;;;;;;;24.57;22.20;;;;;;;22.01;100.00;100866.23;1715970;82;21493;-84
2022/07/16 10:48:32;;;;;;;26.07;23.52;;;;;;;22.07;100.00;100860.70;1715537;81;21097;-85
2022/07/16 10:51:19;;;;;;;24.43;22.17;;;;;;;22.16;100.00;100860.08;1713617;83;21038;-85
2022/07/16 10:54:19;;;;;;;24.67;22.27;;;;;;;22.21;100.00;100859.03;1715967;82;21089;-84
2022/07/16 10:56:51;;;;;;;26.55;23.87;;;;;;;22.33;100.00;100854.06;1716149;81;21019;-87
2022/07/16 10:59:25;;;;;;;24.55;22.02;;;;;;;22.55;100.00;100848.31;1715751;81;21173;-85
2022/07/16 11:01:57;;;;;;;25.62;23.22;;;;;;;22.84;100.00;100847.84;1716227;82;21069;-85
2022/07/16 11:04:28;;;;;;;24.45;22.15;;;;;;;23.07;100.00;100846.80;1715739;83;21065;-85
2022/07/16 11:06:58;;;;;;;23.05;20.82;;;;;;;23.22;100.00;100840.92;1716109;82;21062;-88
2022/07/16 11:09:30;;;;;;;23.42;21.25;;;;;;;23.34;100.00;100844.38;1716185;83;21030;-85
2022/07/16 11:12:16;;;;;;;25.52;22.32;;;;;;;23.43;100.00;100845.88;1716307;83;21363;-85
2022/07/16 11:14:50;;;;;;;22.95;20.95;;;;;;;23.47;100.00;100837.28;1715882;83;21038;-86
2022/07/16 11:17:23;;;;;;;21.93;19.98;;;;;;;23.47;100.00;100836.48;1715450;81;21559;-85
2022/07/16 11:19:55;;;;;;;23.27;21.07;;;;;;;23.48;100.00;100843.44;1715977;83;21010;-84
2022/07/16 11:22:28;;;;;;;22.40;20.20;;;;;;;23.54;100.00;100839.99;1715971;82;21035;-86